createdAt,value
2018-08-10T04:26:36.485Z,99.90
2018-08-10T05:07:57.347Z,99.90
2018-08-10T05:10:44.397Z,99.90
2018-08-10T05:14:03.689Z,99.90
2018-08-10T05:16:53.022Z,99.90
2018-08-10T05:30:31.612Z,99.90
2018-08-10T05:33:02.615Z,99.90
2018-08-10T05:35:33.626Z,99.90
2018-08-10T05:49:21.557Z,99.90
2018-08-10T06:02:38.352Z,99.90
2018-08-10T06:38:48.832Z,99.90
2018-08-10T06:42:01.169Z,99.90
2018-08-10T06:45:06.323Z,99.90
2018-08-10T06:47:38.727Z,99.90
2018-08-10T06:50:17.257Z,99.90
2018-08-10T06:52:53.140Z,99.90
2018-08-10T06:55:25.510Z,99.90
2018-08-10T06:57:55.836Z,99.90
2018-08-10T07:00:26.740Z,99.90
2018-08-10T07:03:02.924Z,99.90
2018-08-10T07:05:33.731Z,99.90
2018-08-10T07:08:04.584Z,99.90
2018-08-10T07:10:35.112Z,99.90
2018-08-10T07:13:08.075Z,86.30
2018-08-10T07:15:38.819Z,94.70
2018-08-10T07:18:12.923Z,95.10
2018-08-10T07:20:42.857Z,94.10
2018-08-10T07:23:12.639Z,99.90
2018-08-10T07:25:42.475Z,93.70
2018-08-10T07:28:12.283Z,98.00
2018-08-10T07:30:42.110Z,93.90
2018-08-10T07:33:11.960Z,86.70
2018-08-10T07:35:41.795Z,98.10
2018-08-10T07:38:11.660Z,97.10
2018-08-10T07:40:42.201Z,66.20
2018-08-10T07:43:12.300Z,64.70
2018-08-10T07:45:42.146Z,54.90
2018-08-10T07:48:11.975Z,55.10
2018-08-10T07:50:41.859Z,46.60
2018-08-10T07:53:11.669Z,48.20
2018-08-10T07:55:41.464Z,50.40
2018-08-10T07:58:12.023Z,47.70
2018-08-10T08:00:42.125Z,46.30
2018-08-10T08:03:12.794Z,47.10
2018-08-10T08:05:42.663Z,47.90
2018-08-10T08:08:12.297Z,47.30
2018-08-10T08:10:42.403Z,48.10
2018-08-10T08:13:12.050Z,49.60
2018-08-10T08:15:43.066Z,46.70
2018-08-10T08:18:13.979Z,47.40
2018-08-10T08:20:55.996Z,48.90
2018-08-10T08:23:26.731Z,48.60
2018-08-10T08:25:56.407Z,46.60
2018-08-10T08:28:29.244Z,44.80
2018-08-10T08:31:01.372Z,44.90
2018-08-10T08:33:32.219Z,47.30
2018-08-10T08:36:03.019Z,45.50
2018-08-10T08:38:43.035Z,46.00
2018-08-10T08:41:12.873Z,45.30
2018-08-10T08:45:57.536Z,44.60
2018-08-10T08:48:30.173Z,44.70
2018-08-10T08:51:02.760Z,46.30
2018-08-10T08:53:33.853Z,49.00
2018-08-10T08:56:05.835Z,49.20
2018-08-10T08:58:37.480Z,52.80
2018-08-10T09:01:10.022Z,68.40
2018-08-10T09:04:53.291Z,83.30
2018-08-10T09:07:24.059Z,61.30
2018-08-10T09:09:55.385Z,96.70
2018-08-10T09:12:35.908Z,99.90
2018-08-10T09:15:11.981Z,99.90
2018-08-10T09:17:42.917Z,99.90
2018-08-10T09:20:16.440Z,99.90
2018-08-10T09:22:49.580Z,99.90
2018-08-10T09:31:01.187Z,55.00
2018-08-10T09:34:01.795Z,52.40
2018-08-10T09:39:08.471Z,48.50
2018-08-10T09:41:48.387Z,49.60
2018-08-10T10:11:52.277Z,45.50
2018-08-10T10:14:23.089Z,43.70
2018-08-10T10:16:57.247Z,47.10
2018-08-10T10:19:28.080Z,43.90
2018-08-10T10:22:04.728Z,44.50
2018-08-10T10:24:36.901Z,42.50
2018-08-10T10:27:06.717Z,43.50
2018-08-10T10:29:53.834Z,43.60
2018-08-10T10:32:23.566Z,40.70
2018-08-10T10:34:54.297Z,42.50
2018-08-10T10:37:25.348Z,42.40
2018-08-10T10:44:32.241Z,41.30
2018-08-10T10:47:02.368Z,42.20
2018-08-10T10:49:33.042Z,41.20
2018-08-10T10:52:06.281Z,41.90
2018-08-10T10:54:45.215Z,44.80
2018-08-10T10:57:17.613Z,43.80
2018-08-10T11:04:02.887Z,47.00
2018-08-10T11:09:21.488Z,41.20
2018-08-10T11:12:29.721Z,42.70
2018-08-10T11:25:33.795Z,43.30
2018-08-10T11:42:22.323Z,45.00
2018-08-10T11:45:06.759Z,44.70
2018-08-10T11:47:50.547Z,44.70
2018-08-10T11:57:39.304Z,46.80
2018-08-10T12:04:13.078Z,47.00
2018-08-10T12:06:43.905Z,44.80
2018-08-10T12:33:53.330Z,48.60
2018-08-10T12:36:37.529Z,53.00
2018-08-10T12:56:29.065Z,99.90
2018-08-10T12:59:07.463Z,99.90
2018-08-10T13:18:51.040Z,99.90
2018-08-10T13:45:42.568Z,99.90
2018-08-10T13:48:40.423Z,99.90
2018-08-10T19:43:43.862Z,99.90
2018-08-10T19:46:28.121Z,99.90
2018-08-10T19:53:02.182Z,99.90
2018-08-10T19:59:15.995Z,99.90
2018-08-10T20:02:25.337Z,99.90
2018-08-10T20:04:54.970Z,99.90
2018-08-10T20:08:04.121Z,99.90
2018-08-10T20:27:38.428Z,99.90
2018-08-10T20:30:12.651Z,99.90
2018-08-10T20:56:58.427Z,99.90
2018-08-10T21:06:40.209Z,99.90
2018-08-10T21:09:52.791Z,99.90
2018-08-10T21:13:41.841Z,99.90
2018-08-10T21:16:41.692Z,99.90
2018-08-10T21:19:49.950Z,99.90
2018-08-10T21:23:14.047Z,99.90
2018-08-10T21:40:02.036Z,99.90
2018-08-10T21:48:46.783Z,99.90
2018-08-10T21:51:18.070Z,99.90
2018-08-10T21:53:49.051Z,99.90
2018-08-10T21:56:37.274Z,99.90
2018-08-10T21:59:20.785Z,99.90
